sensor_id;sensor_type;location;lat;lon;timestamp;P1;durP1;ratioP1;P2;durP2;ratioP2
66012;SDS011;52783;50.502;8.190;2024-02-14T00:01:00;7.57;;;3.28;;
66012;SDS011;52783;50.502;8.190;2024-02-14T00:03:26;4.97;;;2.40;;
66012;SDS011;52783;50.502;8.190;2024-02-14T00:05:51;6.68;;;2.20;;
66012;SDS011;52783;50.502;8.190;2024-02-14T00:08:17;3.67;;;2.20;;
66012;SDS011;52783;50.502;8.190;2024-02-14T00:10:43;5.30;;;2.30;;
66012;SDS011;52783;50.502;8.190;2024-02-14T00:13:09;4.05;;;1.90;;
66012;SDS011;52783;50.502;8.190;2024-02-14T00:15:35;9.07;;;2.30;;
66012;SDS011;52783;50.502;8.190;2024-02-14T00:18:02;6.38;;;2.10;;
66012;SDS011;52783;50.502;8.190;2024-02-14T00:20:27;6.78;;;2.42;;
66012;SDS011;52783;50.502;8.190;2024-02-14T00:22:53;2.72;;;2.17;;
66012;SDS011;52783;50.502;8.190;2024-02-14T00:25:18;7.03;;;2.25;;
66012;SDS011;52783;50.502;8.190;2024-02-14T00:27:44;9.63;;;2.65;;
66012;SDS011;52783;50.502;8.190;2024-02-14T00:30:10;4.90;;;2.10;;
66012;SDS011;52783;50.502;8.190;2024-02-14T00:32:36;4.03;;;2.08;;
66012;SDS011;52783;50.502;8.190;2024-02-14T00:35:02;6.43;;;2.17;;
66012;SDS011;52783;50.502;8.190;2024-02-14T00:37:27;8.77;;;2.35;;
66012;SDS011;52783;50.502;8.190;2024-02-14T00:39:53;5.03;;;1.92;;
66012;SDS011;52783;50.502;8.190;2024-02-14T00:42:20;4.20;;;2.40;;
66012;SDS011;52783;50.502;8.190;2024-02-14T00:44:47;8.00;;;2.10;;
66012;SDS011;52783;50.502;8.190;2024-02-14T00:47:12;8.05;;;2.28;;
66012;SDS011;52783;50.502;8.190;2024-02-14T00:49:38;4.82;;;1.88;;
66012;SDS011;52783;50.502;8.190;2024-02-14T00:52:04;7.90;;;2.20;;
66012;SDS011;52783;50.502;8.190;2024-02-14T00:54:29;4.93;;;2.33;;
66012;SDS011;52783;50.502;8.190;2024-02-14T00:56:55;7.05;;;2.50;;
66012;SDS011;52783;50.502;8.190;2024-02-14T00:59:20;4.00;;;2.10;;
66012;SDS011;52783;50.502;8.190;2024-02-14T01:01:46;3.20;;;1.90;;
66012;SDS011;52783;50.502;8.190;2024-02-14T01:04:11;4.93;;;2.20;;
66012;SDS011;52783;50.502;8.190;2024-02-14T01:06:37;3.30;;;1.77;;
66012;SDS011;52783;50.502;8.190;2024-02-14T01:09:02;9.23;;;2.25;;
66012;SDS011;52783;50.502;8.190;2024-02-14T01:11:28;3.50;;;1.92;;
66012;SDS011;52783;50.502;8.190;2024-02-14T01:13:53;5.07;;;2.42;;
66012;SDS011;52783;50.502;8.190;2024-02-14T01:16:19;4.75;;;2.03;;
66012;SDS011;52783;50.502;8.190;2024-02-14T01:18:44;5.95;;;2.00;;
66012;SDS011;52783;50.502;8.190;2024-02-14T01:21:10;2.03;;;1.80;;
66012;SDS011;52783;50.502;8.190;2024-02-14T01:23:35;5.95;;;2.00;;
66012;SDS011;52783;50.502;8.190;2024-02-14T01:26:01;4.38;;;2.28;;
66012;SDS011;52783;50.502;8.190;2024-02-14T01:28:27;7.05;;;2.22;;
66012;SDS011;52783;50.502;8.190;2024-02-14T01:30:52;2.88;;;2.05;;
66012;SDS011;52783;50.502;8.190;2024-02-14T01:33:18;6.78;;;2.40;;
66012;SDS011;52783;50.502;8.190;2024-02-14T01:35:43;4.25;;;2.28;;
66012;SDS011;52783;50.502;8.190;2024-02-14T01:38:09;4.63;;;2.30;;
66012;SDS011;52783;50.502;8.190;2024-02-14T01:40:37;9.13;;;2.30;;
66012;SDS011;52783;50.502;8.190;2024-02-14T01:43:02;4.88;;;2.33;;
66012;SDS011;52783;50.502;8.190;2024-02-14T01:45:28;5.20;;;2.30;;
66012;SDS011;52783;50.502;8.190;2024-02-14T01:47:53;5.25;;;2.17;;
66012;SDS011;52783;50.502;8.190;2024-02-14T01:50:20;6.57;;;2.33;;
66012;SDS011;52783;50.502;8.190;2024-02-14T01:52:53;3.42;;;1.80;;
66012;SDS011;52783;50.502;8.190;2024-02-14T01:55:20;5.93;;;1.85;;
66012;SDS011;52783;50.502;8.190;2024-02-14T01:57:46;7.65;;;2.08;;
66012;SDS011;52783;50.502;8.190;2024-02-14T02:00:13;3.13;;;1.70;;
66012;SDS011;52783;50.502;8.190;2024-02-14T02:02:41;5.95;;;2.83;;
66012;SDS011;52783;50.502;8.190;2024-02-14T02:05:07;2.65;;;1.75;;
66012;SDS011;52783;50.502;8.190;2024-02-14T02:07:32;4.68;;;2.70;;
66012;SDS011;52783;50.502;8.190;2024-02-14T02:09:58;2.00;;;1.85;;
66012;SDS011;52783;50.502;8.190;2024-02-14T02:12:24;3.53;;;1.88;;
66012;SDS011;52783;50.502;8.190;2024-02-14T02:14:52;4.88;;;2.08;;
66012;SDS011;52783;50.502;8.190;2024-02-14T02:17:18;3.47;;;2.22;;
66012;SDS011;52783;50.502;8.190;2024-02-14T02:19:43;6.00;;;2.08;;
66012;SDS011;52783;50.502;8.190;2024-02-14T02:22:09;5.10;;;2.10;;
66012;SDS011;52783;50.502;8.190;2024-02-14T02:24:35;5.50;;;2.50;;
66012;SDS011;52783;50.502;8.190;2024-02-14T02:27:01;10.23;;;2.00;;
66012;SDS011;52783;50.502;8.190;2024-02-14T02:29:28;3.67;;;2.20;;
66012;SDS011;52783;50.502;8.190;2024-02-14T02:31:53;3.13;;;1.80;;
66012;SDS011;52783;50.502;8.190;2024-02-14T02:34:19;3.35;;;2.00;;
66012;SDS011;52783;50.502;8.190;2024-02-14T02:36:44;5.45;;;2.08;;
66012;SDS011;52783;50.502;8.190;2024-02-14T02:39:11;7.95;;;2.50;;
66012;SDS011;52783;50.502;8.190;2024-02-14T02:41:38;7.20;;;1.95;;
66012;SDS011;52783;50.502;8.190;2024-02-14T02:44:04;3.22;;;2.13;;
66012;SDS011;52783;50.502;8.190;2024-02-14T02:46:31;3.00;;;1.92;;
66012;SDS011;52783;50.502;8.190;2024-02-14T02:48:57;6.15;;;2.08;;
66012;SDS011;52783;50.502;8.190;2024-02-14T02:51:23;2.10;;;1.88;;
66012;SDS011;52783;50.502;8.190;2024-02-14T02:53:49;4.13;;;1.90;;
66012;SDS011;52783;50.502;8.190;2024-02-14T02:56:17;8.20;;;2.08;;
66012;SDS011;52783;50.502;8.190;2024-02-14T02:58:43;4.53;;;2.35;;
66012;SDS011;52783;50.502;8.190;2024-02-14T03:01:09;2.35;;;2.00;;
66012;SDS011;52783;50.502;8.190;2024-02-14T03:03:36;2.95;;;1.95;;
66012;SDS011;52783;50.502;8.190;2024-02-14T03:06:04;8.35;;;2.17;;
66012;SDS011;52783;50.502;8.190;2024-02-14T03:08:30;2.10;;;1.90;;
66012;SDS011;52783;50.502;8.190;2024-02-14T03:11:01;2.33;;;2.03;;
66012;SDS011;52783;50.502;8.190;2024-02-14T03:13:33;6.28;;;2.30;;
66012;SDS011;52783;50.502;8.190;2024-02-14T03:15:58;4.70;;;1.85;;
66012;SDS011;52783;50.502;8.190;2024-02-14T03:18:24;9.93;;;2.20;;
66012;SDS011;52783;50.502;8.190;2024-02-14T03:20:50;4.78;;;1.77;;
66012;SDS011;52783;50.502;8.190;2024-02-14T03:23:15;5.53;;;1.90;;
66012;SDS011;52783;50.502;8.190;2024-02-14T03:25:41;3.47;;;1.90;;
66012;SDS011;52783;50.502;8.190;2024-02-14T03:28:07;4.35;;;2.10;;
66012;SDS011;52783;50.502;8.190;2024-02-14T03:30:34;3.17;;;1.88;;
66012;SDS011;52783;50.502;8.190;2024-02-14T03:33:00;2.75;;;1.85;;
66012;SDS011;52783;50.502;8.190;2024-02-14T03:35:27;4.45;;;2.00;;
66012;SDS011;52783;50.502;8.190;2024-02-14T03:37:53;3.08;;;1.70;;
66012;SDS011;52783;50.502;8.190;2024-02-14T03:40:18;5.40;;;1.98;;
66012;SDS011;52783;50.502;8.190;2024-02-14T03:42:47;3.97;;;2.10;;
66012;SDS011;52783;50.502;8.190;2024-02-14T03:45:13;5.85;;;2.20;;
66012;SDS011;52783;50.502;8.190;2024-02-14T03:47:39;2.75;;;1.60;;
66012;SDS011;52783;50.502;8.190;2024-02-14T03:50:05;3.67;;;1.85;;
66012;SDS011;52783;50.502;8.190;2024-02-14T03:52:32;3.38;;;2.20;;
66012;SDS011;52783;50.502;8.190;2024-02-14T03:54:57;7.68;;;2.35;;
66012;SDS011;52783;50.502;8.190;2024-02-14T03:57:26;4.10;;;1.98;;
66012;SDS011;52783;50.502;8.190;2024-02-14T03:59:53;2.83;;;1.90;;
66012;SDS011;52783;50.502;8.190;2024-02-14T04:02:24;5.05;;;2.08;;
66012;SDS011;52783;50.502;8.190;2024-02-14T04:04:51;5.95;;;2.70;;
66012;SDS011;52783;50.502;8.190;2024-02-14T04:07:16;8.90;;;2.53;;
66012;SDS011;52783;50.502;8.190;2024-02-14T04:09:42;4.95;;;2.20;;
66012;SDS011;52783;50.502;8.190;2024-02-14T04:12:08;4.85;;;2.28;;
66012;SDS011;52783;50.502;8.190;2024-02-14T04:14:35;5.18;;;2.10;;
66012;SDS011;52783;50.502;8.190;2024-02-14T04:17:01;3.08;;;2.00;;
66012;SDS011;52783;50.502;8.190;2024-02-14T04:19:26;4.18;;;2.25;;
66012;SDS011;52783;50.502;8.190;2024-02-14T04:21:53;4.90;;;2.08;;
66012;SDS011;52783;50.502;8.190;2024-02-14T04:24:19;4.63;;;2.42;;
66012;SDS011;52783;50.502;8.190;2024-02-14T04:26:44;6.50;;;2.30;;
66012;SDS011;52783;50.502;8.190;2024-02-14T04:29:10;3.25;;;2.00;;
66012;SDS011;52783;50.502;8.190;2024-02-14T04:31:35;3.30;;;2.05;;
66012;SDS011;52783;50.502;8.190;2024-02-14T04:34:01;5.65;;;2.20;;
66012;SDS011;52783;50.502;8.190;2024-02-14T04:36:27;7.63;;;2.30;;
66012;SDS011;52783;50.502;8.190;2024-02-14T04:38:54;4.47;;;2.47;;
66012;SDS011;52783;50.502;8.190;2024-02-14T04:41:22;4.13;;;2.22;;
66012;SDS011;52783;50.502;8.190;2024-02-14T04:43:48;10.60;;;4.57;;
66012;SDS011;52783;50.502;8.190;2024-02-14T04:46:13;6.43;;;2.63;;
66012;SDS011;52783;50.502;8.190;2024-02-14T04:48:39;6.93;;;2.42;;
66012;SDS011;52783;50.502;8.190;2024-02-14T04:51:04;3.53;;;2.33;;
66012;SDS011;52783;50.502;8.190;2024-02-14T04:53:30;3.47;;;2.08;;
66012;SDS011;52783;50.502;8.190;2024-02-14T04:55:56;4.35;;;2.38;;
66012;SDS011;52783;50.502;8.190;2024-02-14T04:58:22;4.28;;;2.20;;
66012;SDS011;52783;50.502;8.190;2024-02-14T05:00:48;4.32;;;2.30;;
66012;SDS011;52783;50.502;8.190;2024-02-14T05:03:14;4.35;;;2.10;;
66012;SDS011;52783;50.502;8.190;2024-02-14T05:05:40;3.08;;;2.05;;
66012;SDS011;52783;50.502;8.190;2024-02-14T05:08:06;8.50;;;2.40;;
66012;SDS011;52783;50.502;8.190;2024-02-14T05:10:32;5.10;;;2.45;;
66012;SDS011;52783;50.502;8.190;2024-02-14T05:12:57;3.72;;;1.98;;
66012;SDS011;52783;50.502;8.190;2024-02-14T05:15:23;6.40;;;2.22;;
66012;SDS011;52783;50.502;8.190;2024-02-14T05:17:49;3.70;;;2.20;;
66012;SDS011;52783;50.502;8.190;2024-02-14T05:20:15;3.47;;;2.00;;
66012;SDS011;52783;50.502;8.190;2024-02-14T05:22:41;6.15;;;2.75;;
66012;SDS011;52783;50.502;8.190;2024-02-14T05:25:07;6.40;;;2.50;;
66012;SDS011;52783;50.502;8.190;2024-02-14T05:27:34;5.80;;;2.47;;
66012;SDS011;52783;50.502;8.190;2024-02-14T05:30:00;5.10;;;2.50;;
66012;SDS011;52783;50.502;8.190;2024-02-14T05:32:30;5.55;;;2.00;;
66012;SDS011;52783;50.502;8.190;2024-02-14T05:34:58;7.63;;;2.53;;
66012;SDS011;52783;50.502;8.190;2024-02-14T05:37:24;6.15;;;2.97;;
66012;SDS011;52783;50.502;8.190;2024-02-14T05:39:52;3.78;;;2.45;;
66012;SDS011;52783;50.502;8.190;2024-02-14T05:42:18;7.70;;;3.30;;
66012;SDS011;52783;50.502;8.190;2024-02-14T05:44:44;5.47;;;2.22;;
66012;SDS011;52783;50.502;8.190;2024-02-14T05:47:09;6.20;;;2.67;;
66012;SDS011;52783;50.502;8.190;2024-02-14T05:49:37;6.22;;;3.28;;
66012;SDS011;52783;50.502;8.190;2024-02-14T05:52:09;7.47;;;2.65;;
66012;SDS011;52783;50.502;8.190;2024-02-14T05:54:34;5.95;;;2.40;;
66012;SDS011;52783;50.502;8.190;2024-02-14T05:57:00;9.45;;;2.92;;
66012;SDS011;52783;50.502;8.190;2024-02-14T05:59:29;2.92;;;2.05;;
66012;SDS011;52783;50.502;8.190;2024-02-14T06:01:55;6.18;;;2.58;;
66012;SDS011;52783;50.502;8.190;2024-02-14T06:04:21;5.28;;;2.38;;
66012;SDS011;52783;50.502;8.190;2024-02-14T06:06:46;5.95;;;2.60;;
66012;SDS011;52783;50.502;8.190;2024-02-14T06:09:12;4.45;;;2.55;;
66012;SDS011;52783;50.502;8.190;2024-02-14T06:11:38;5.90;;;3.05;;
66012;SDS011;52783;50.502;8.190;2024-02-14T06:14:04;8.60;;;2.40;;
66012;SDS011;52783;50.502;8.190;2024-02-14T06:16:33;6.22;;;2.58;;
66012;SDS011;52783;50.502;8.190;2024-02-14T06:18:59;8.75;;;2.50;;
66012;SDS011;52783;50.502;8.190;2024-02-14T06:21:25;6.35;;;2.88;;
66012;SDS011;52783;50.502;8.190;2024-02-14T06:23:52;6.82;;;2.60;;
66012;SDS011;52783;50.502;8.190;2024-02-14T06:26:17;6.05;;;2.38;;
66012;SDS011;52783;50.502;8.190;2024-02-14T06:28:46;6.75;;;2.60;;
66012;SDS011;52783;50.502;8.190;2024-02-14T06:31:11;7.53;;;2.63;;
66012;SDS011;52783;50.502;8.190;2024-02-14T06:33:37;12.70;;;3.55;;
66012;SDS011;52783;50.502;8.190;2024-02-14T06:36:03;8.98;;;2.80;;
66012;SDS011;52783;50.502;8.190;2024-02-14T06:38:28;10.38;;;3.20;;
66012;SDS011;52783;50.502;8.190;2024-02-14T06:40:56;13.00;;;4.07;;
66012;SDS011;52783;50.502;8.190;2024-02-14T06:43:21;10.43;;;3.03;;
66012;SDS011;52783;50.502;8.190;2024-02-14T06:45:47;12.90;;;5.10;;
66012;SDS011;52783;50.502;8.190;2024-02-14T06:48:12;10.18;;;3.58;;
66012;SDS011;52783;50.502;8.190;2024-02-14T06:50:38;8.15;;;3.33;;
66012;SDS011;52783;50.502;8.190;2024-02-14T06:53:03;9.05;;;2.67;;
66012;SDS011;52783;50.502;8.190;2024-02-14T06:55:29;7.18;;;3.22;;
66012;SDS011;52783;50.502;8.190;2024-02-14T06:57:56;6.60;;;3.60;;
66012;SDS011;52783;50.502;8.190;2024-02-14T07:00:23;12.07;;;4.20;;
66012;SDS011;52783;50.502;8.190;2024-02-14T07:02:48;13.32;;;3.40;;
66012;SDS011;52783;50.502;8.190;2024-02-14T07:05:14;7.32;;;3.92;;
66012;SDS011;52783;50.502;8.190;2024-02-14T07:07:40;5.40;;;3.30;;
66012;SDS011;52783;50.502;8.190;2024-02-14T07:10:06;5.85;;;3.50;;
66012;SDS011;52783;50.502;8.190;2024-02-14T07:12:32;9.57;;;3.85;;
66012;SDS011;52783;50.502;8.190;2024-02-14T07:14:58;6.68;;;3.33;;
66012;SDS011;52783;50.502;8.190;2024-02-14T07:17:23;8.45;;;3.38;;
66012;SDS011;52783;50.502;8.190;2024-02-14T07:19:49;9.82;;;3.70;;
66012;SDS011;52783;50.502;8.190;2024-02-14T07:22:15;11.90;;;4.40;;
66012;SDS011;52783;50.502;8.190;2024-02-14T07:24:44;11.30;;;3.72;;
66012;SDS011;52783;50.502;8.190;2024-02-14T07:27:10;13.52;;;4.15;;
66012;SDS011;52783;50.502;8.190;2024-02-14T07:29:36;5.47;;;3.33;;
66012;SDS011;52783;50.502;8.190;2024-02-14T07:32:02;5.18;;;3.22;;
66012;SDS011;52783;50.502;8.190;2024-02-14T07:34:27;8.50;;;3.38;;
66012;SDS011;52783;50.502;8.190;2024-02-14T07:36:53;6.15;;;3.30;;
66012;SDS011;52783;50.502;8.190;2024-02-14T07:39:18;9.15;;;3.47;;
66012;SDS011;52783;50.502;8.190;2024-02-14T07:41:44;5.00;;;3.00;;
66012;SDS011;52783;50.502;8.190;2024-02-14T07:44:09;7.63;;;3.92;;
66012;SDS011;52783;50.502;8.190;2024-02-14T07:46:35;11.80;;;3.40;;
66012;SDS011;52783;50.502;8.190;2024-02-14T07:49:01;6.75;;;3.13;;
66012;SDS011;52783;50.502;8.190;2024-02-14T07:51:26;6.78;;;3.67;;
66012;SDS011;52783;50.502;8.190;2024-02-14T07:53:53;9.68;;;3.60;;
66012;SDS011;52783;50.502;8.190;2024-02-14T07:56:19;5.78;;;3.65;;
66012;SDS011;52783;50.502;8.190;2024-02-14T07:58:45;10.85;;;3.00;;
66012;SDS011;52783;50.502;8.190;2024-02-14T08:01:10;12.70;;;3.70;;
66012;SDS011;52783;50.502;8.190;2024-02-14T08:03:36;5.22;;;3.20;;
66012;SDS011;52783;50.502;8.190;2024-02-14T08:06:01;8.43;;;2.97;;
66012;SDS011;52783;50.502;8.190;2024-02-14T08:08:27;8.30;;;3.45;;
66012;SDS011;52783;50.502;8.190;2024-02-14T08:10:53;7.07;;;4.05;;
66012;SDS011;52783;50.502;8.190;2024-02-14T08:13:19;11.77;;;4.18;;
66012;SDS011;52783;50.502;8.190;2024-02-14T08:15:45;10.65;;;3.53;;
66012;SDS011;52783;50.502;8.190;2024-02-14T08:18:11;8.57;;;3.20;;
66012;SDS011;52783;50.502;8.190;2024-02-14T08:20:37;8.93;;;3.15;;
66012;SDS011;52783;50.502;8.190;2024-02-14T08:23:03;6.20;;;3.13;;
66012;SDS011;52783;50.502;8.190;2024-02-14T08:25:28;10.07;;;2.65;;
66012;SDS011;52783;50.502;8.190;2024-02-14T08:27:54;9.15;;;3.28;;
66012;SDS011;52783;50.502;8.190;2024-02-14T08:30:20;7.18;;;2.90;;
66012;SDS011;52783;50.502;8.190;2024-02-14T08:32:46;8.52;;;3.45;;
66012;SDS011;52783;50.502;8.190;2024-02-14T08:35:12;7.85;;;2.97;;
66012;SDS011;52783;50.502;8.190;2024-02-14T08:37:38;6.13;;;3.00;;
66012;SDS011;52783;50.502;8.190;2024-02-14T08:40:05;12.25;;;3.17;;
66012;SDS011;52783;50.502;8.190;2024-02-14T08:42:32;7.68;;;2.72;;
66012;SDS011;52783;50.502;8.190;2024-02-14T08:44:58;3.10;;;2.45;;
66012;SDS011;52783;50.502;8.190;2024-02-14T08:47:24;9.10;;;2.83;;
66012;SDS011;52783;50.502;8.190;2024-02-14T08:49:50;4.97;;;2.75;;
66012;SDS011;52783;50.502;8.190;2024-02-14T08:52:16;4.70;;;2.80;;
66012;SDS011;52783;50.502;8.190;2024-02-14T08:54:42;6.72;;;2.80;;
66012;SDS011;52783;50.502;8.190;2024-02-14T08:57:07;2.83;;;2.35;;
66012;SDS011;52783;50.502;8.190;2024-02-14T08:59:32;3.75;;;2.60;;
66012;SDS011;52783;50.502;8.190;2024-02-14T09:01:58;7.45;;;2.67;;
66012;SDS011;52783;50.502;8.190;2024-02-14T09:04:24;5.30;;;2.40;;
66012;SDS011;52783;50.502;8.190;2024-02-14T09:06:49;3.80;;;2.40;;
66012;SDS011;52783;50.502;8.190;2024-02-14T09:09:15;4.75;;;2.60;;
66012;SDS011;52783;50.502;8.190;2024-02-14T09:11:41;4.25;;;2.83;;
66012;SDS011;52783;50.502;8.190;2024-02-14T09:14:06;10.57;;;4.28;;
66012;SDS011;52783;50.502;8.190;2024-02-14T09:16:32;6.95;;;2.95;;
66012;SDS011;52783;50.502;8.190;2024-02-14T09:18:58;4.50;;;2.70;;
66012;SDS011;52783;50.502;8.190;2024-02-14T09:21:24;2.65;;;1.85;;
66012;SDS011;52783;50.502;8.190;2024-02-14T09:23:50;5.10;;;2.60;;
66012;SDS011;52783;50.502;8.190;2024-02-14T09:26:16;3.80;;;2.50;;
66012;SDS011;52783;50.502;8.190;2024-02-14T09:28:42;7.35;;;2.55;;
66012;SDS011;52783;50.502;8.190;2024-02-14T09:31:08;4.00;;;2.58;;
66012;SDS011;52783;50.502;8.190;2024-02-14T09:33:36;4.25;;;2.25;;
66012;SDS011;52783;50.502;8.190;2024-02-14T09:36:05;2.67;;;2.13;;
66012;SDS011;52783;50.502;8.190;2024-02-14T09:38:31;6.43;;;2.50;;
66012;SDS011;52783;50.502;8.190;2024-02-14T09:41:11;6.20;;;2.60;;
66012;SDS011;52783;50.502;8.190;2024-02-14T09:43:43;3.92;;;2.47;;
66012;SDS011;52783;50.502;8.190;2024-02-14T09:46:11;5.90;;;2.35;;
66012;SDS011;52783;50.502;8.190;2024-02-14T09:48:38;2.80;;;2.22;;
66012;SDS011;52783;50.502;8.190;2024-02-14T09:51:04;3.17;;;2.20;;
66012;SDS011;52783;50.502;8.190;2024-02-14T09:53:32;8.43;;;3.80;;
66012;SDS011;52783;50.502;8.190;2024-02-14T09:55:57;3.22;;;2.20;;
66012;SDS011;52783;50.502;8.190;2024-02-14T09:58:24;2.72;;;1.90;;
66012;SDS011;52783;50.502;8.190;2024-02-14T10:00:52;3.10;;;2.45;;
66012;SDS011;52783;50.502;8.190;2024-02-14T10:03:17;5.57;;;2.33;;
66012;SDS011;52783;50.502;8.190;2024-02-14T10:05:43;4.20;;;1.80;;
66012;SDS011;52783;50.502;8.190;2024-02-14T10:08:08;2.17;;;1.77;;
66012;SDS011;52783;50.502;8.190;2024-02-14T10:10:35;3.05;;;1.88;;
66012;SDS011;52783;50.502;8.190;2024-02-14T10:13:05;3.88;;;1.77;;
66012;SDS011;52783;50.502;8.190;2024-02-14T10:15:32;5.07;;;1.52;;
66012;SDS011;52783;50.502;8.190;2024-02-14T10:17:58;2.00;;;1.85;;
66012;SDS011;52783;50.502;8.190;2024-02-14T10:20:24;2.72;;;1.80;;
66012;SDS011;52783;50.502;8.190;2024-02-14T10:22:51;2.30;;;1.95;;
66012;SDS011;52783;50.502;8.190;2024-02-14T10:25:17;3.35;;;1.90;;
66012;SDS011;52783;50.502;8.190;2024-02-14T10:27:44;2.17;;;1.70;;
66012;SDS011;52783;50.502;8.190;2024-02-14T10:30:11;3.08;;;1.80;;
66012;SDS011;52783;50.502;8.190;2024-02-14T10:32:37;3.03;;;1.95;;
66012;SDS011;52783;50.502;8.190;2024-02-14T10:35:05;1.70;;;1.60;;
66012;SDS011;52783;50.502;8.190;2024-02-14T10:37:36;3.15;;;2.25;;
66012;SDS011;52783;50.502;8.190;2024-02-14T10:40:02;2.38;;;1.70;;
66012;SDS011;52783;50.502;8.190;2024-02-14T10:42:29;3.03;;;2.03;;
66012;SDS011;52783;50.502;8.190;2024-02-14T10:45:01;2.05;;;1.40;;
66012;SDS011;52783;50.502;8.190;2024-02-14T10:47:31;5.10;;;1.60;;
66012;SDS011;52783;50.502;8.190;2024-02-14T10:50:02;4.97;;;1.88;;
66012;SDS011;52783;50.502;8.190;2024-02-14T10:52:32;2.53;;;2.00;;
66012;SDS011;52783;50.502;8.190;2024-02-14T10:55:04;4.10;;;2.20;;
66012;SDS011;52783;50.502;8.190;2024-02-14T10:57:30;3.08;;;1.67;;
66012;SDS011;52783;50.502;8.190;2024-02-14T10:59:57;4.32;;;2.10;;
66012;SDS011;52783;50.502;8.190;2024-02-14T11:02:26;2.45;;;2.20;;
66012;SDS011;52783;50.502;8.190;2024-02-14T11:04:55;4.40;;;2.42;;
66012;SDS011;52783;50.502;8.190;2024-02-14T11:07:23;4.70;;;2.05;;
66012;SDS011;52783;50.502;8.190;2024-02-14T11:10:08;3.25;;;1.52;;
66012;SDS011;52783;50.502;8.190;2024-02-14T11:12:34;3.33;;;1.80;;
66012;SDS011;52783;50.502;8.190;2024-02-14T11:15:02;7.10;;;1.92;;
66012;SDS011;52783;50.502;8.190;2024-02-14T11:17:42;2.90;;;1.75;;
66012;SDS011;52783;50.502;8.190;2024-02-14T11:20:12;2.17;;;1.50;;
66012;SDS011;52783;50.502;8.190;2024-02-14T11:22:57;2.15;;;1.88;;
66012;SDS011;52783;50.502;8.190;2024-02-14T11:25:32;1.73;;;1.60;;
66012;SDS011;52783;50.502;8.190;2024-02-14T11:27:59;3.13;;;1.65;;
66012;SDS011;52783;50.502;8.190;2024-02-14T11:30:30;1.60;;;1.50;;
66012;SDS011;52783;50.502;8.190;2024-02-14T11:35:43;2.47;;;1.45;;
66012;SDS011;52783;50.502;8.190;2024-02-14T11:38:10;2.50;;;1.80;;
66012;SDS011;52783;50.502;8.190;2024-02-14T11:40:36;3.83;;;1.63;;
66012;SDS011;52783;50.502;8.190;2024-02-14T11:43:04;3.15;;;1.70;;
66012;SDS011;52783;50.502;8.190;2024-02-14T11:45:34;1.63;;;1.52;;
66012;SDS011;52783;50.502;8.190;2024-02-14T11:48:00;2.20;;;1.60;;
66012;SDS011;52783;50.502;8.190;2024-02-14T11:50:26;2.13;;;1.42;;
66012;SDS011;52783;50.502;8.190;2024-02-14T11:52:52;3.20;;;1.58;;
66012;SDS011;52783;50.502;8.190;2024-02-14T11:55:18;4.03;;;1.80;;
66012;SDS011;52783;50.502;8.190;2024-02-14T11:57:57;4.32;;;1.30;;
66012;SDS011;52783;50.502;8.190;2024-02-14T12:00:23;2.95;;;1.50;;
66012;SDS011;52783;50.502;8.190;2024-02-14T12:02:49;1.52;;;1.10;;
66012;SDS011;52783;50.502;8.190;2024-02-14T12:05:16;3.40;;;1.50;;
66012;SDS011;52783;50.502;8.190;2024-02-14T12:07:42;1.60;;;1.35;;
66012;SDS011;52783;50.502;8.190;2024-02-14T12:10:09;2.65;;;1.42;;
66012;SDS011;52783;50.502;8.190;2024-02-14T12:12:34;1.73;;;1.30;;
66012;SDS011;52783;50.502;8.190;2024-02-14T12:15:01;3.30;;;2.60;;
66012;SDS011;52783;50.502;8.190;2024-02-14T12:17:27;3.95;;;2.88;;
66012;SDS011;52783;50.502;8.190;2024-02-14T12:20:04;2.97;;;1.90;;
66012;SDS011;52783;50.502;8.190;2024-02-14T12:22:34;2.35;;;2.03;;
66012;SDS011;52783;50.502;8.190;2024-02-14T12:25:00;4.68;;;2.28;;
66012;SDS011;52783;50.502;8.190;2024-02-14T12:27:26;2.78;;;2.00;;
66012;SDS011;52783;50.502;8.190;2024-02-14T12:29:51;2.15;;;1.10;;
66012;SDS011;52783;50.502;8.190;2024-02-14T12:32:17;4.18;;;1.98;;
66012;SDS011;52783;50.502;8.190;2024-02-14T12:34:43;3.58;;;1.95;;
66012;SDS011;52783;50.502;8.190;2024-02-14T12:37:09;9.18;;;2.08;;
66012;SDS011;52783;50.502;8.190;2024-02-14T12:39:36;3.97;;;2.08;;
66012;SDS011;52783;50.502;8.190;2024-02-14T12:42:02;3.60;;;1.77;;
66012;SDS011;52783;50.502;8.190;2024-02-14T12:44:29;6.32;;;2.83;;
66012;SDS011;52783;50.502;8.190;2024-02-14T12:46:54;4.82;;;1.98;;
66012;SDS011;52783;50.502;8.190;2024-02-14T12:49:20;4.53;;;2.83;;
66012;SDS011;52783;50.502;8.190;2024-02-14T12:51:46;4.85;;;2.97;;
66012;SDS011;52783;50.502;8.190;2024-02-14T12:54:12;3.33;;;1.77;;
66012;SDS011;52783;50.502;8.190;2024-02-14T12:56:39;2.88;;;1.95;;
66012;SDS011;52783;50.502;8.190;2024-02-14T12:59:05;5.88;;;2.53;;
66012;SDS011;52783;50.502;8.190;2024-02-14T13:01:31;3.90;;;2.00;;
66012;SDS011;52783;50.502;8.190;2024-02-14T13:03:56;2.63;;;1.75;;
66012;SDS011;52783;50.502;8.190;2024-02-14T13:06:22;3.85;;;1.77;;
66012;SDS011;52783;50.502;8.190;2024-02-14T13:08:48;3.17;;;1.50;;
66012;SDS011;52783;50.502;8.190;2024-02-14T13:11:14;3.40;;;1.80;;
66012;SDS011;52783;50.502;8.190;2024-02-14T13:13:41;2.95;;;2.10;;
66012;SDS011;52783;50.502;8.190;2024-02-14T13:16:07;6.38;;;2.15;;
66012;SDS011;52783;50.502;8.190;2024-02-14T13:18:33;3.92;;;2.05;;
66012;SDS011;52783;50.502;8.190;2024-02-14T13:20:59;4.57;;;2.22;;
66012;SDS011;52783;50.502;8.190;2024-02-14T13:23:25;2.50;;;1.67;;
66012;SDS011;52783;50.502;8.190;2024-02-14T13:25:51;5.78;;;1.63;;
66012;SDS011;52783;50.502;8.190;2024-02-14T13:28:17;2.08;;;1.50;;
66012;SDS011;52783;50.502;8.190;2024-02-14T13:30:42;1.50;;;1.40;;
66012;SDS011;52783;50.502;8.190;2024-02-14T13:33:08;5.60;;;1.30;;
66012;SDS011;52783;50.502;8.190;2024-02-14T13:35:37;1.90;;;1.30;;
66012;SDS011;52783;50.502;8.190;2024-02-14T13:38:04;2.63;;;1.25;;
66012;SDS011;52783;50.502;8.190;2024-02-14T13:40:36;5.50;;;2.70;;
66012;SDS011;52783;50.502;8.190;2024-02-14T13:43:02;6.35;;;2.33;;
66012;SDS011;52783;50.502;8.190;2024-02-14T13:45:30;4.65;;;2.10;;
66012;SDS011;52783;50.502;8.190;2024-02-14T13:48:09;5.07;;;1.80;;
66012;SDS011;52783;50.502;8.190;2024-02-14T13:50:35;5.93;;;2.80;;
66012;SDS011;52783;50.502;8.190;2024-02-14T13:53:01;4.82;;;2.75;;
66012;SDS011;52783;50.502;8.190;2024-02-14T13:55:28;3.38;;;1.67;;
66012;SDS011;52783;50.502;8.190;2024-02-14T13:57:53;3.03;;;1.83;;
66012;SDS011;52783;50.502;8.190;2024-02-14T14:00:19;6.45;;;2.83;;
66012;SDS011;52783;50.502;8.190;2024-02-14T14:02:44;6.65;;;3.50;;
66012;SDS011;52783;50.502;8.190;2024-02-14T14:05:10;4.50;;;3.47;;
66012;SDS011;52783;50.502;8.190;2024-02-14T14:07:39;1.17;;;1.08;;
66012;SDS011;52783;50.502;8.190;2024-02-14T14:10:06;2.88;;;1.75;;
66012;SDS011;52783;50.502;8.190;2024-02-14T14:12:33;3.15;;;2.30;;
66012;SDS011;52783;50.502;8.190;2024-02-14T14:14:58;3.35;;;3.05;;
66012;SDS011;52783;50.502;8.190;2024-02-14T14:17:25;3.33;;;2.25;;
66012;SDS011;52783;50.502;8.190;2024-02-14T14:19:51;2.22;;;2.00;;
66012;SDS011;52783;50.502;8.190;2024-02-14T14:22:18;1.50;;;1.40;;
66012;SDS011;52783;50.502;8.190;2024-02-14T14:24:43;3.10;;;1.80;;
66012;SDS011;52783;50.502;8.190;2024-02-14T14:27:09;2.17;;;1.75;;
66012;SDS011;52783;50.502;8.190;2024-02-14T14:29:38;3.35;;;1.80;;
66012;SDS011;52783;50.502;8.190;2024-02-14T14:32:13;1.65;;;1.17;;
66012;SDS011;52783;50.502;8.190;2024-02-14T14:34:39;3.85;;;1.38;;
66012;SDS011;52783;50.502;8.190;2024-02-14T14:37:04;1.73;;;1.63;;
66012;SDS011;52783;50.502;8.190;2024-02-14T14:39:31;1.55;;;1.30;;
66012;SDS011;52783;50.502;8.190;2024-02-14T14:41:56;1.67;;;1.58;;
66012;SDS011;52783;50.502;8.190;2024-02-14T14:44:26;1.42;;;1.33;;
66012;SDS011;52783;50.502;8.190;2024-02-14T14:46:52;1.40;;;1.30;;